Time;durP1;ratioP1;P1;durP2;ratioP2;P2;SDS_P1;SDS_P2;PMS_P1;PMS_P2;Temp;Humidity;BMP_temperature;BMP_pressure;BME280_temperature;BME280_humidity;BME280_pressure;Samples;Min_cycle;Max_cycle;Signal;HPM_P1;HPM_P2
2021/11/03 00:01:31;;;;;;;3.70;3.30;;;;;;;9.64;81.83;98835.81;10051530;29;20058;-63
2021/11/03 00:06:33;;;;;;;3.90;3.50;;;;;;;9.68;83.20;98828.34;10046494;29;20046;-68
2021/11/03 00:11:36;;;;;;;4.00;3.60;;;;;;;9.73;82.60;98812.78;10049829;29;20148;-66
2021/11/03 00:16:37;;;;;;;5.75;3.58;;;;;;;9.76;82.78;98798.34;10050559;29;20053;-67
2021/11/03 00:21:39;;;;;;;7.78;4.18;;;;;;;9.80;82.64;98802.38;10051129;29;20065;-68
2021/11/03 00:26:40;;;;;;;4.32;3.60;;;;;;;9.83;82.34;98805.56;10053674;29;20057;-66
2021/11/03 00:31:42;;;;;;;4.20;3.80;;;;;;;9.77;81.86;98800.84;10055229;29;20523;-67
2021/11/03 00:36:43;;;;;;;4.93;3.40;;;;;;;9.76;82.62;98795.69;10052564;29;20132;-68
2021/11/03 00:41:45;;;;;;;4.55;4.07;;;;;;;9.72;83.02;98795.19;10057181;29;20113;-66
2021/11/03 00:46:47;;;;;;;4.35;3.95;;;;;;;9.75;82.20;98797.53;10057803;29;20057;-67
2021/11/03 00:51:48;;;;;;;5.05;3.80;;;;;;;9.76;82.71;98785.91;10058643;29;20198;-67
2021/11/03 00:56:50;;;;;;;5.68;4.03;;;;;;;9.69;82.27;98779.53;10061509;29;20077;-66
2021/11/03 01:01:51;;;;;;;6.38;4.60;;;;;;;9.58;83.07;98766.50;10055373;29;20084;-66
2021/11/03 01:06:53;;;;;;;4.85;4.35;;;;;;;9.53;83.52;98778.44;10058340;29;20508;-66
2021/11/03 01:11:54;;;;;;;5.55;5.00;;;;;;;9.49;83.46;98779.72;10063083;29;20053;-66
2021/11/03 01:16:56;;;;;;;6.25;4.97;;;;;;;9.47;83.14;98765.75;10056231;29;20064;-67
2021/11/03 01:21:58;;;;;;;4.75;4.35;;;;;;;9.44;83.51;98755.41;10051057;29;20090;-68
2021/11/03 01:27:00;;;;;;;6.15;4.90;;;;;;;9.42;83.21;98744.13;10050867;29;20081;-66
2021/11/03 01:32:02;;;;;;;6.45;4.63;;;;;;;9.43;83.36;98736.97;10057620;29;20050;-66
2021/11/03 01:37:03;;;;;;;5.72;4.95;;;;;;;9.36;82.94;98734.13;10047852;29;20059;-69
2021/11/03 01:42:05;;;;;;;5.35;4.85;;;;;;;9.35;83.34;98729.78;10049572;29;20487;-67
2021/11/03 01:47:43;;;;;;;5.32;4.80;;;;;;;9.32;82.73;98735.41;10048778;29;20121;-67
2021/11/03 01:52:47;;;;;;;5.60;4.07;;;;;;;9.32;83.18;98730.94;10054438;29;20495;-67
2021/11/03 01:57:55;;;;;;;5.80;4.25;;;;;;;9.33;83.76;98721.16;10057545;29;20120;-68
2021/11/03 02:03:08;;;;;;;6.82;4.45;;;;;;;9.27;83.08;98705.81;10066957;29;20057;-66
2021/11/03 02:08:09;;;;;;;5.50;5.00;;;;;;;9.27;83.05;98717.28;10051386;29;20153;-67
2021/11/03 02:13:13;;;;;;;6.82;4.65;;;;;;;9.24;82.61;98711.44;10049663;29;20068;-67
2021/11/03 02:18:17;;;;;;;5.78;3.88;;;;;;;9.19;82.78;98720.69;10040729;29;20061;-68
2021/11/03 02:23:45;;;;;;;4.85;4.45;;;;;;;9.19;83.00;98712.72;10047217;29;20076;-67
2021/11/03 02:28:48;;;;;;;5.93;4.57;;;;;;;9.15;81.76;98718.50;10049757;29;20162;-67
2021/11/03 02:33:49;;;;;;;5.28;4.38;;;;;;;9.12;83.25;98711.66;10047848;29;20143;-67
2021/11/03 02:38:51;;;;;;;4.78;4.32;;;;;;;9.12;82.92;98709.00;10054546;29;20131;-66
2021/11/03 02:44:03;;;;;;;5.50;3.92;;;;;;;9.16;83.10;98723.66;10048904;29;20348;-66
2021/11/03 02:49:05;;;;;;;4.38;3.97;;;;;;;9.13;82.82;98721.31;10045733;29;20057;-67
2021/11/03 02:54:11;;;;;;;4.03;3.67;;;;;;;9.13;82.95;98718.66;10049740;29;20067;-67
2021/11/03 02:59:15;;;;;;;3.90;3.60;;;;;;;9.09;82.91;98711.97;10053377;29;20060;-67
2021/11/03 03:04:29;;;;;;;5.13;3.30;;;;;;;9.08;83.09;98712.94;10046232;29;20149;-67
2021/11/03 03:09:30;;;;;;;5.82;3.38;;;;;;;9.02;82.59;98703.78;10051899;29;20648;-68
2021/11/03 03:14:36;;;;;;;4.38;3.97;;;;;;;9.03;82.96;98710.75;10051658;29;20064;-66
2021/11/03 03:19:38;;;;;;;6.65;3.78;;;;;;;9.05;82.75;98692.00;10044887;29;20170;-67
2021/11/03 03:24:41;;;;;;;3.97;3.60;;;;;;;9.06;82.81;98696.34;10043849;29;20148;-67
2021/11/03 03:29:42;;;;;;;4.43;3.58;;;;;;;9.06;82.60;98688.38;10053926;29;20060;-68
2021/11/03 03:34:44;;;;;;;5.80;3.70;;;;;;;9.06;82.52;98692.88;10052423;29;20057;-67
2021/11/03 03:39:46;;;;;;;3.92;3.13;;;;;;;9.06;81.88;98688.38;10044473;29;20504;-68
2021/11/03 03:44:48;;;;;;;4.85;3.53;;;;;;;9.06;81.61;98688.38;10048532;29;20062;-67
2021/11/03 03:49:50;;;;;;;4.00;3.60;;;;;;;9.06;82.46;98692.88;10052626;29;20058;-67
2021/11/03 03:54:51;;;;;;;3.30;3.00;;;;;;;8.99;80.96;98695.28;10057155;29;20129;-67
2021/11/03 03:59:53;;;;;;;5.38;3.58;;;;;;;8.99;81.22;98697.94;10061808;29;20602;-67
2021/11/03 04:04:54;;;;;;;3.30;2.97;;;;;;;9.01;82.04;98695.97;10059265;29;20571;-67
2021/11/03 04:09:55;;;;;;;4.40;3.20;;;;;;;9.05;81.98;98697.31;10053142;29;20131;-68
2021/11/03 04:14:57;;;;;;;5.18;3.10;;;;;;;9.11;82.09;98707.34;10057185;29;20077;-68
2021/11/03 04:19:58;;;;;;;3.15;2.85;;;;;;;9.03;81.63;98689.50;10055087;29;20100;-67
2021/11/03 04:25:00;;;;;;;4.47;3.42;;;;;;;9.05;81.80;98699.97;10053173;29;20061;-67
2021/11/03 04:30:03;;;;;;;4.80;4.40;;;;;;;9.01;82.10;98695.97;10066076;29;20064;-68
2021/11/03 04:35:06;;;;;;;4.13;3.47;;;;;;;9.01;82.89;98690.66;10057219;29;20073;-67
2021/11/03 04:40:10;;;;;;;5.90;3.90;;;;;;;9.05;83.21;98686.72;10063317;29;20068;-67
2021/11/03 04:45:12;;;;;;;5.55;4.30;;;;;;;9.04;83.71;98674.44;10054892;29;20053;-67
2021/11/03 04:50:21;;;;;;;5.20;4.63;;;;;;;9.10;83.43;98684.44;10057830;29;20072;-67
2021/11/03 04:55:23;;;;;;;4.95;4.55;;;;;;;9.05;83.50;98670.78;10053782;29;20056;-68
2021/11/03 05:00:28;;;;;;;5.28;4.70;;;;;;;9.05;83.06;98676.09;10061007;29;20308;-68
2021/11/03 05:05:30;;;;;;;5.28;4.45;;;;;;;9.05;83.40;98654.03;10052650;29;20055;-67
2021/11/03 05:10:32;;;;;;;4.47;4.05;;;;;;;9.08;83.93;98659.84;10056536;29;20085;-68
2021/11/03 05:15:33;;;;;;;5.10;4.60;;;;;;;9.06;84.22;98653.06;10053975;29;20612;-67
2021/11/03 05:20:35;;;;;;;5.00;4.30;;;;;;;9.11;83.53;98650.75;10051749;29;20576;-67
2021/11/03 05:25:36;;;;;;;4.63;4.22;;;;;;;9.04;84.24;98642.59;10055525;29;20049;-66
2021/11/03 05:30:38;;;;;;;6.07;4.68;;;;;;;9.06;84.12;98640.59;10059350;29;20132;-67
2021/11/03 05:35:40;;;;;;;5.75;5.13;;;;;;;9.07;83.25;98644.09;10055982;29;20160;-68
2021/11/03 05:40:42;;;;;;;5.32;4.82;;;;;;;9.06;83.09;98645.09;10047294;29;20085;-67
2021/11/03 05:45:44;;;;;;;5.63;4.80;;;;;;;9.00;82.83;98646.53;10069602;29;20457;-67
2021/11/03 05:50:45;;;;;;;5.88;5.32;;;;;;;9.02;83.81;98636.59;10056123;29;20060;-67
2021/11/03 05:55:47;;;;;;;6.15;4.78;;;;;;;9.03;84.63;98632.94;10063628;29;20052;-67
2021/11/03 06:00:48;;;;;;;5.28;4.65;;;;;;;9.05;84.27;98628.31;10051524;29;20056;-67
2021/11/03 06:05:50;;;;;;;5.75;4.20;;;;;;;9.10;84.53;98626.03;10052594;29;20173;-66
2021/11/03 06:10:52;;;;;;;10.10;6.72;;;;;;;9.05;83.68;98633.63;10048266;29;20053;-67
2021/11/03 06:15:56;;;;;;;6.50;5.90;;;;;;;9.07;84.31;98626.34;10061604;29;20144;-67
2021/11/03 06:20:58;;;;;;;7.80;5.90;;;;;;;9.13;84.80;98625.75;10043197;29;20053;-65
2021/11/03 06:25:59;;;;;;;6.28;5.18;;;;;;;9.10;84.81;98614.59;10044405;29;20086;-66
2021/11/03 06:31:01;;;;;;;5.57;5.05;;;;;;;9.12;84.50;98605.47;10044512;29;20089;-66
2021/11/03 06:36:06;;;;;;;6.20;5.60;;;;;;;9.05;84.47;98601.78;10042279;29;20053;-68
2021/11/03 06:41:08;;;;;;;5.63;5.07;;;;;;;9.08;84.56;98590.84;10045646;29;20061;-66
2021/11/03 06:46:10;;;;;;;7.43;5.55;;;;;;;9.11;84.84;98582.59;10045580;29;20064;-68
2021/11/03 06:51:12;;;;;;;5.63;4.95;;;;;;;9.13;84.74;98582.44;10048811;29;20053;-66
2021/11/03 06:56:13;;;;;;;5.75;5.15;;;;;;;9.11;84.47;98579.09;10045547;29;20081;-66
2021/11/03 07:01:15;;;;;;;6.00;4.05;;;;;;;9.09;84.77;98581.06;10045818;29;20189;-67
2021/11/03 07:06:17;;;;;;;6.93;4.45;;;;;;;9.12;84.97;98572.81;10050585;29;20304;-65
2021/11/03 07:11:19;;;;;;;5.07;3.72;;;;;;;9.16;84.18;98558.25;10052056;29;20724;-65
2021/11/03 07:16:26;;;;;;;3.83;3.42;;;;;;;9.15;84.75;98560.03;10049690;29;20053;-65
2021/11/03 07:21:28;;;;;;;5.72;3.70;;;;;;;9.17;84.67;98566.03;10052268;29;20069;-63
2021/11/03 07:26:30;;;;;;;6.03;3.45;;;;;;;9.24;85.41;98576.03;10050818;29;20061;-65
2021/11/03 07:31:31;;;;;;;3.20;2.75;;;;;;;9.28;84.67;98566.78;10058262;29;20054;-65
2021/11/03 07:36:33;;;;;;;4.82;3.10;;;;;;;9.33;84.99;98567.13;10053722;29;20065;-65
2021/11/03 07:41:35;;;;;;;3.80;3.20;;;;;;;9.37;84.47;98563.19;10059516;29;20492;-63
2021/11/03 07:46:37;;;;;;;3.97;2.95;;;;;;;9.38;84.36;98560.38;10055289;29;20524;-66
2021/11/03 07:51:38;;;;;;;2.60;2.10;;;;;;;9.41;84.56;98569.81;10053784;29;20053;-65
2021/11/03 07:56:42;;;;;;;3.42;2.55;;;;;;;9.43;84.47;98559.88;10054840;29;20131;-66
2021/11/03 08:01:44;;;;;;;2.78;2.22;;;;;;;9.44;83.70;98558.06;10047477;29;20082;-66
2021/11/03 08:06:47;;;;;;;2.47;2.00;;;;;;;9.53;84.21;98567.72;10058263;29;20151;-65
2021/11/03 08:11:50;;;;;;;2.83;2.20;;;;;;;9.55;83.81;98571.06;10053467;29;20565;-65
2021/11/03 08:16:57;;;;;;;2.72;1.80;;;;;;;9.57;83.60;98562.94;10051944;29;20078;-67
2021/11/03 08:21:59;;;;;;;3.47;1.88;;;;;;;9.47;84.09;98558.59;10050988;29;20059;-65
2021/11/03 08:27:01;;;;;;;1.90;1.50;;;;;;;9.54;84.31;98559.59;10043433;29;20334;-66
2021/11/03 08:32:11;;;;;;;2.80;1.40;;;;;;;9.64;83.63;98559.50;10044027;29;20061;-66
2021/11/03 08:37:22;;;;;;;2.50;2.00;;;;;;;9.71;83.66;98565.00;10051741;29;20136;-70
2021/11/03 08:42:24;;;;;;;2.95;2.05;;;;;;;9.71;83.94;98559.69;10051320;29;20052;-66
2021/11/03 08:47:25;;;;;;;2.30;1.88;;;;;;;9.74;83.32;98564.66;10052470;29;20136;-65
2021/11/03 08:52:27;;;;;;;3.28;2.25;;;;;;;9.79;83.43;98577.47;10049520;29;20061;-66
2021/11/03 08:57:28;;;;;;;4.45;3.25;;;;;;;9.80;84.51;98564.03;10050968;29;20133;-66
2021/11/03 09:02:30;;;;;;;21.50;15.20;;;;;;;9.84;84.49;98567.22;10048640;29;20165;-66
2021/11/03 09:07:33;;;;;;;10.32;8.43;;;;;;;9.88;84.73;98564.06;10050824;29;20127;-66
2021/11/03 09:12:34;;;;;;;8.05;5.15;;;;;;;9.91;84.13;98555.78;10051325;29;20057;-65
2021/11/03 09:17:36;;;;;;;7.40;5.78;;;;;;;9.94;84.47;98557.28;10050069;29;20049;-66
2021/11/03 09:22:39;;;;;;;4.30;3.15;;;;;;;10.01;84.63;98565.44;10049545;29;20595;-66
2021/11/03 09:27:41;;;;;;;2.60;2.25;;;;;;;9.98;83.35;98555.97;10051808;29;20506;-66
2021/11/03 09:32:45;;;;;;;4.28;2.65;;;;;;;10.01;84.08;98560.97;10046276;29;20508;-67
2021/11/03 09:37:48;;;;;;;4.15;2.65;;;;;;;9.98;83.13;98555.13;10050039;29;20123;-66
2021/11/03 09:42:51;;;;;;;6.93;5.55;;;;;;;9.84;84.40;98560.06;10047634;29;20380;-65
2021/11/03 09:47:59;;;;;;;4.53;3.30;;;;;;;9.87;83.67;98559.75;10045951;29;20085;-66
2021/11/03 09:53:15;;;;;;;6.15;4.00;;;;;;;9.93;84.08;98560.94;10045712;29;20692;-67
2021/11/03 09:58:21;;;;;;;4.72;3.20;;;;;;;9.96;83.03;98565.09;10046896;29;20777;-66
2021/11/03 10:03:26;;;;;;;3.25;2.95;;;;;;;9.94;82.93;98572.38;10047873;29;20061;-66
2021/11/03 10:08:31;;;;;;;2.80;2.55;;;;;;;9.84;82.83;98568.03;10059143;29;20447;-66
2021/11/03 10:13:37;;;;;;;3.75;3.00;;;;;;;9.91;82.84;98577.03;10050886;29;20052;-66
2021/11/03 10:18:55;;;;;;;3.15;2.80;;;;;;;9.90;82.48;98575.38;10049101;29;20557;-66
2021/11/03 10:24:11;;;;;;;4.03;3.50;;;;;;;9.88;83.71;98577.38;10052342;29;20065;-65
2021/11/03 10:29:12;;;;;;;4.15;3.42;;;;;;;9.95;84.09;98572.22;10055709;29;20100;-66
2021/11/03 10:34:40;;;;;;;4.85;3.20;;;;;;;10.00;84.01;98571.78;10057660;29;20049;-66
2021/11/03 10:39:56;;;;;;;4.30;3.55;;;;;;;9.91;83.38;98577.03;10048087;29;20051;-67
2021/11/03 10:45:29;;;;;;;5.00;3.75;;;;;;;9.83;83.06;98577.03;10047256;29;20519;-67
2021/11/03 10:50:35;;;;;;;4.32;3.38;;;;;;;9.91;83.89;98574.38;10049003;29;20136;-66
2021/11/03 10:55:37;;;;;;;4.22;3.30;;;;;;;9.96;84.18;98568.59;10048529;29;20163;-65
2021/11/03 11:00:56;;;;;;;2.88;2.60;;;;;;;9.95;83.48;98566.09;10045616;29;20300;-66
2021/11/03 11:06:12;;;;;;;3.88;2.92;;;;;;;10.08;83.10;98574.44;10051053;29;20068;-67
2021/11/03 11:11:16;;;;;;;3.67;2.53;;;;;;;10.08;82.71;98582.41;10067864;29;20079;-67
2021/11/03 11:16:27;;;;;;;4.32;2.63;;;;;;;10.21;83.60;98588.13;10051122;29;20052;-67
2021/11/03 11:21:50;;;;;;;4.45;2.65;;;;;;;10.29;82.02;98583.81;10050798;29;20053;-68
2021/11/03 11:27:04;;;;;;;3.28;2.58;;;;;;;10.24;82.78;98569.16;10048024;29;20053;-67
2021/11/03 11:32:23;;;;;;;3.42;2.67;;;;;;;10.22;82.23;98571.19;10050011;29;20057;-67
2021/11/03 11:37:43;;;;;;;3.75;2.95;;;;;;;10.25;83.55;98562.88;10052388;29;20120;-67
2021/11/03 11:42:54;;;;;;;3.17;2.50;;;;;;;10.27;83.32;98563.53;10061479;29;20162;-67
2021/11/03 11:48:11;;;;;;;3.95;2.85;;;;;;;10.33;83.86;98559.44;10066750;29;20513;-67
2021/11/03 11:53:39;;;;;;;3.85;3.50;;;;;;;10.47;83.96;98557.13;10051851;29;20072;-67
2021/11/03 11:59:09;;;;;;;4.35;3.33;;;;;;;10.63;84.80;98553.63;10051543;29;20056;-66
2021/11/03 12:04:20;;;;;;;3.78;3.28;;;;;;;10.71;84.18;98550.97;10047175;29;20332;-67
2021/11/03 12:09:41;;;;;;;5.10;4.25;;;;;;;10.77;83.28;98539.66;10051450;29;20375;-67
2021/11/03 12:14:47;;;;;;;3.90;3.60;;;;;;;10.82;83.04;98547.97;10050448;29;20175;-67
2021/11/03 12:19:56;;;;;;;3.80;3.50;;;;;;;10.83;83.05;98540.84;10049567;29;20064;-66
2021/11/03 12:25:13;;;;;;;4.35;3.95;;;;;;;10.81;83.72;98550.81;10054128;29;20719;-67
2021/11/03 12:30:15;;;;;;;4.13;3.67;;;;;;;10.77;84.32;98550.31;10060548;29;20044;-68
2021/11/03 12:35:16;;;;;;;4.75;4.25;;;;;;;10.80;84.66;98544.66;10050509;29;20078;-68
2021/11/03 12:40:36;;;;;;;4.80;4.32;;;;;;;10.82;84.90;98537.31;10052490;29;20086;-68
2021/11/03 12:46:08;;;;;;;5.72;4.47;;;;;;;10.79;84.43;98535.00;10055640;29;20196;-68
2021/11/03 12:51:19;;;;;;;6.72;4.30;;;;;;;10.76;84.83;98538.00;10035808;29;20077;-68
2021/11/03 12:56:25;;;;;;;4.32;3.90;;;;;;;10.85;85.91;98544.16;10051900;29;20105;-67
2021/11/03 13:01:26;;;;;;;4.75;3.17;;;;;;;10.83;84.62;98540.84;10052216;29;20163;-68
2021/11/03 13:06:33;;;;;;;5.93;4.43;;;;;;;10.76;82.50;98553.97;10049601;29;20052;-68
2021/11/03 13:11:38;;;;;;;4.75;3.78;;;;;;;10.60;83.39;98539.66;10054494;29;20049;-67
2021/11/03 13:16:46;;;;;;;4.75;4.13;;;;;;;10.64;82.33;98552.63;10055608;29;20543;-68
2021/11/03 13:21:48;;;;;;;3.83;3.50;;;;;;;10.58;83.83;98547.00;10060834;29;20054;-67
2021/11/03 13:26:51;;;;;;;3.65;3.28;;;;;;;10.62;83.70;98555.47;10057225;29;20050;-66
2021/11/03 13:32:26;;;;;;;4.27;3.80;;;;;;;10.61;84.06;98554.66;10061032;29;20106;-66
2021/11/03 13:37:33;;;;;;;4.25;3.85;;;;;;;10.60;84.49;98554.81;10038960;29;20559;-66
2021/11/03 13:42:40;;;;;;;4.97;4.47;;;;;;;10.64;84.66;98547.31;10054915;29;20069;-67
2021/11/03 13:47:42;;;;;;;4.47;4.03;;;;;;;10.71;86.33;98545.66;10053253;29;20057;-67
2021/11/03 13:53:09;;;;;;;5.05;4.55;;;;;;;10.68;85.40;98546.00;10070137;29;20425;-67
2021/11/03 13:58:26;;;;;;;6.07;4.93;;;;;;;10.69;86.32;98544.97;10042635;29;21048;-66
2021/11/03 14:03:47;;;;;;;6.15;5.05;;;;;;;10.67;86.14;98555.78;10048474;29;20063;-67
2021/11/03 14:08:50;;;;;;;7.47;5.10;;;;;;;10.70;86.67;98555.44;10067228;29;20192;-66
2021/11/03 14:13:55;;;;;;;6.35;4.97;;;;;;;10.64;86.52;98557.97;10046402;29;20065;-66
2021/11/03 14:18:58;;;;;;;6.60;5.78;;;;;;;10.59;86.43;98564.59;10044459;29;20136;-67
2021/11/03 14:24:00;;;;;;;5.75;5.22;;;;;;;10.64;87.01;98569.41;10044711;29;20157;-68
2021/11/03 14:29:01;;;;;;;4.97;4.57;;;;;;;10.57;86.25;98558.63;10048729;29;20493;-66
2021/11/03 14:34:11;;;;;;;5.97;4.88;;;;;;;10.55;86.56;98547.31;10050849;29;20155;-66
2021/11/03 14:39:20;;;;;;;6.05;5.25;;;;;;;10.63;87.26;98550.97;10049578;29;20124;-67
2021/11/03 14:44:22;;;;;;;7.07;6.38;;;;;;;10.68;87.94;98557.47;10050727;29;20288;-66
2021/11/03 14:49:25;;;;;;;9.30;6.72;;;;;;;10.73;88.09;98551.63;10047116;29;20125;-67
2021/11/03 14:54:27;;;;;;;8.15;6.63;;;;;;;10.75;88.21;98531.84;10050247;29;20053;-67
2021/11/03 14:59:28;;;;;;;7.32;6.60;;;;;;;10.78;87.95;98546.66;10050153;29;20469;-67
2021/11/03 15:04:35;;;;;;;8.02;6.90;;;;;;;10.73;87.59;98539.19;10050225;29;20052;-67
2021/11/03 15:09:37;;;;;;;8.27;6.63;;;;;;;10.68;87.84;98543.34;10063229;29;20053;-68
2021/11/03 15:14:40;;;;;;;7.53;6.82;;;;;;;10.68;88.07;98543.34;10045773;29;20374;-68
2021/11/03 15:19:50;;;;;;;6.88;6.28;;;;;;;10.65;88.72;98549.81;10048352;29;20110;-66
2021/11/03 15:24:54;;;;;;;7.43;6.68;;;;;;;10.64;88.60;98548.13;10048478;29;20064;-67
2021/11/03 15:29:55;;;;;;;7.25;6.57;;;;;;;10.70;89.12;98549.31;10046608;29;20518;-66
2021/11/03 15:34:57;;;;;;;8.13;7.05;;;;;;;10.68;89.07;98552.13;10048255;29;20136;-67
2021/11/03 15:40:17;;;;;;;8.30;6.43;;;;;;;10.70;88.82;98554.63;10048274;29;20045;-65
2021/11/03 15:45:19;;;;;;;7.80;7.00;;;;;;;10.69;88.68;98548.50;10049073;29;20545;-67
2021/11/03 15:50:34;;;;;;;7.70;6.43;;;;;;;10.66;88.58;98563.94;10056638;29;20065;-67
2021/11/03 15:55:35;;;;;;;;;;;;;;;10.66;88.34;98571.91;10051471;29;20079;-65
2021/11/03 16:00:40;;;;;;;7.07;5.45;;;;;;;10.60;88.87;98571.59;10050137;29;19931;-66
2021/11/03 16:05:43;;;;;;;6.70;6.10;;;;;;;10.59;88.79;98569.91;10057431;29;20049;-66
2021/11/03 16:10:44;;;;;;;7.15;5.20;;;;;;;10.57;89.03;98561.28;10056959;29;20158;-66
2021/11/03 16:15:51;;;;;;;6.35;5.53;;;;;;;10.55;88.94;98573.94;10056508;29;20180;-68
2021/11/03 16:20:54;;;;;;;5.55;5.05;;;;;;;10.55;88.69;98565.94;10053806;29;20057;-66
2021/11/03 16:25:57;;;;;;;7.70;5.80;;;;;;;10.50;88.55;98565.59;10054811;29;20564;-67
2021/11/03 16:31:01;;;;;;;11.02;8.85;;;;;;;10.50;89.21;98565.59;10057259;29;20128;-65
2021/11/03 16:36:07;;;;;;;10.38;9.38;;;;;;;10.51;89.62;98561.94;10063787;29;20113;-66
2021/11/03 16:41:29;;;;;;;8.63;7.80;;;;;;;10.51;89.94;98551.31;10050009;29;20063;-66
2021/11/03 16:46:30;;;;;;;11.63;10.60;;;;;;;10.50;89.45;98564.78;10052396;29;20061;-66
2021/11/03 16:51:32;;;;;;;9.10;8.30;;;;;;;10.50;89.65;98564.78;10053469;29;20118;-66
2021/11/03 16:56:33;;;;;;;10.80;9.90;;;;;;;10.53;89.70;98570.59;10053321;29;20053;-66
2021/11/03 17:01:35;;;;;;;10.82;8.95;;;;;;;10.52;89.14;98574.22;10053678;29;20045;-66
2021/11/03 17:06:48;;;;;;;10.10;9.07;;;;;;;10.53;89.16;98583.88;10053263;29;20147;-66
2021/11/03 17:11:50;;;;;;;10.75;9.85;;;;;;;10.52;89.32;98582.22;10067376;29;20620;-67
2021/11/03 17:16:53;;;;;;;17.90;13.48;;;;;;;10.50;88.83;98594.03;10051079;29;20059;-65
2021/11/03 17:21:58;;;;;;;10.32;9.27;;;;;;;10.53;89.26;98604.34;10052776;29;20144;-66
2021/11/03 17:27:01;;;;;;;;;;;;;;;10.52;88.91;98618.63;10054141;29;20461;-66
2021/11/03 17:32:14;;;;;;;10.38;9.13;;;;;;;10.51;89.02;98608.97;10048933;29;19942;-66
2021/11/03 17:37:17;;;;;;;8.73;7.95;;;;;;;10.55;88.76;98610.31;10053026;29;20122;-67
2021/11/03 17:42:31;;;;;;;8.13;7.40;;;;;;;10.49;88.71;98603.81;10048176;29;20090;-66
2021/11/03 17:47:35;;;;;;;9.73;8.82;;;;;;;10.51;88.33;98612.50;10050001;29;20176;-66
2021/11/03 17:52:38;;;;;;;9.10;8.20;;;;;;;10.50;88.31;98624.13;10050319;29;20041;-66
2021/11/03 17:58:01;;;;;;;8.13;7.45;;;;;;;10.52;88.30;98642.56;10048600;29;20053;-67
2021/11/03 18:03:04;;;;;;;8.77;7.60;;;;;;;10.55;88.04;98642.25;10052424;29;20433;-67
2021/11/03 18:08:06;;;;;;;9.68;8.68;;;;;;;10.52;87.88;98647.91;10048473;29;20053;-66
2021/11/03 18:13:20;;;;;;;13.50;8.80;;;;;;;10.50;87.56;98645.41;10047729;29;20422;-67
2021/11/03 18:18:26;;;;;;;9.37;8.47;;;;;;;10.52;88.08;98642.56;10049809;29;20137;-67
2021/11/03 18:23:28;;;;;;;9.10;8.18;;;;;;;10.50;88.00;98639.25;10050823;29;20140;-67
2021/11/03 18:28:30;;;;;;;32.88;21.25;;;;;;;10.51;87.79;98647.06;10048713;29;20169;-67
2021/11/03 18:33:33;;;;;;;9.27;8.43;;;;;;;10.52;87.59;98630.09;10047365;29;20273;-68
2021/11/03 18:38:34;;;;;;;9.55;8.20;;;;;;;10.50;87.30;98637.41;10049646;29;20508;-68
2021/11/03 18:43:37;;;;;;;8.10;7.30;;;;;;;10.51;88.53;98641.75;10050127;29;20053;-67
2021/11/03 18:48:40;;;;;;;9.13;8.32;;;;;;;10.58;88.36;98636.59;10048857;29;20584;-67
2021/11/03 18:53:43;;;;;;;8.25;7.55;;;;;;;10.52;87.05;98631.94;10047870;29;20086;-67
2021/11/03 18:58:53;;;;;;;7.63;6.97;;;;;;;10.50;87.02;98624.13;10047484;29;20392;-66
2021/11/03 19:03:56;;;;;;;8.55;7.75;;;;;;;10.59;88.00;98623.13;10047126;29;20055;-68
2021/11/03 19:09:16;;;;;;;10.50;9.10;;;;;;;10.50;87.17;98629.44;10044124;29;20361;-67
2021/11/03 19:14:21;;;;;;;8.63;7.72;;;;;;;10.50;87.63;98642.75;10045459;29;20125;-67
2021/11/03 19:19:24;;;;;;;;;;;;;;;10.51;87.91;98636.44;10050600;29;20093;-66
2021/11/03 19:24:43;;;;;;;10.85;9.85;;;;;;;10.48;88.38;98635.91;10053237;29;20069;-67
2021/11/03 19:29:46;;;;;;;25.40;19.05;;;;;;;10.43;87.66;98647.03;10045406;29;20105;-67
2021/11/03 19:34:48;;;;;;;8.90;8.00;;;;;;;10.38;87.85;98650.19;10040497;29;20057;-70
2021/11/03 19:39:50;;;;;;;9.45;8.43;;;;;;;10.32;88.16;98644.66;10044277;29;20057;-66
2021/11/03 19:44:53;;;;;;;9.00;8.25;;;;;;;10.29;88.27;98668.91;10045489;29;20061;-68
2021/11/03 19:49:54;;;;;;;9.00;7.32;;;;;;;10.19;88.05;98659.25;10049649;29;20053;-67
2021/11/03 19:55:02;;;;;;;8.70;8.00;;;;;;;10.13;88.15;98651.88;10046372;29;20067;-69
2021/11/03 20:00:25;;;;;;;9.02;8.23;;;;;;;10.14;87.84;98674.84;10049481;29;20366;-67
2021/11/03 20:05:28;;;;;;;15.43;12.82;;;;;;;10.13;88.31;98681.13;10048888;29;20045;-70
2021/11/03 20:10:39;;;;;;;8.60;7.80;;;;;;;10.09;87.78;98666.50;10047089;29;20173;-67
2021/11/03 20:15:42;;;;;;;7.85;7.03;;;;;;;10.11;88.14;98672.50;10043239;29;20091;-69
2021/11/03 20:20:45;;;;;;;8.13;6.75;;;;;;;10.13;87.71;98680.31;10043005;29;20060;-68
2021/11/03 20:25:47;;;;;;;9.48;8.60;;;;;;;10.11;87.46;98693.75;10045221;29;20057;-66
2021/11/03 20:30:59;;;;;;;9.05;8.15;;;;;;;10.02;88.00;98690.22;10047393;29;20140;-68
2021/11/03 20:36:07;;;;;;;8.98;8.27;;;;;;;10.13;88.21;98713.03;10047475;29;20461;-68
2021/11/03 20:41:12;;;;;;;8.32;7.53;;;;;;;10.16;88.51;98702.09;10053590;29;21249;-67
2021/11/03 20:46:14;;;;;;;;;;;;;;;10.19;88.27;98696.47;10050646;29;20057;-67
2021/11/03 20:51:19;;;;;;;9.82;7.97;;;;;;;10.19;88.68;98679.66;10055850;29;19978;-67
2021/11/03 20:56:21;;;;;;;8.98;8.07;;;;;;;10.22;88.41;98680.19;10053252;29;20407;-67
2021/11/03 21:01:23;;;;;;;10.35;8.13;;;;;;;10.26;88.05;98692.16;10056957;29;20118;-67
2021/11/03 21:06:25;;;;;;;9.88;8.88;;;;;;;10.29;88.11;98691.03;10047390;29;20059;-69
2021/11/03 21:11:27;;;;;;;12.45;11.15;;;;;;;10.34;87.75;98693.22;10056847;29;20204;-67
2021/11/03 21:16:28;;;;;;;11.63;8.80;;;;;;;10.34;87.66;98699.38;10044037;29;20058;-69
2021/11/03 21:21:30;;;;;;;8.88;8.05;;;;;;;10.31;87.40;98707.63;10056924;29;20691;-67
2021/11/03 21:26:32;;;;;;;10.02;9.13;;;;;;;10.31;87.72;98699.66;10068664;29;20576;-69
2021/11/03 21:31:33;;;;;;;10.40;9.50;;;;;;;10.33;87.64;98697.72;10061324;29;20057;-68
2021/11/03 21:36:35;;;;;;;10.23;9.25;;;;;;;10.36;87.57;98689.41;10053782;29;20468;-68
2021/11/03 21:41:36;;;;;;;9.77;8.77;;;;;;;10.32;87.82;98687.22;10047451;29;20144;-69
2021/11/03 21:46:38;;;;;;;9.70;8.68;;;;;;;10.38;87.32;98689.25;10058760;29;20216;-68
2021/11/03 21:51:39;;;;;;;11.25;10.15;;;;;;;10.37;87.51;98698.22;10064560;29;20113;-68
2021/11/03 21:56:41;;;;;;;10.30;9.30;;;;;;;10.35;87.43;98705.53;10053271;29;20061;-68
2021/11/03 22:01:43;;;;;;;11.35;9.88;;;;;;;10.38;87.07;98695.41;10059355;29;20105;-67
2021/11/03 22:06:44;;;;;;;9.90;9.00;;;;;;;10.51;87.01;98694.97;10050133;29;20100;-68
2021/11/03 22:11:46;;;;;;;10.10;9.07;;;;;;;10.50;86.49;98698.59;10055682;29;20128;-67
2021/11/03 22:16:48;;;;;;;9.40;8.63;;;;;;;10.45;85.54;98730.19;10052971;29;20081;-69
2021/11/03 22:21:50;;;;;;;9.23;8.32;;;;;;;10.38;86.55;98708.69;10062098;29;20117;-69
2021/11/03 22:26:51;;;;;;;9.05;8.15;;;;;;;10.45;86.24;98716.91;10057977;29;20503;-69
2021/11/03 22:31:52;;;;;;;10.10;8.70;;;;;;;10.39;86.09;98710.38;10059536;29;20132;-68
2021/11/03 22:36:54;;;;;;;9.85;9.00;;;;;;;10.35;86.62;98713.53;10059324;29;20148;-68
2021/11/03 22:41:58;;;;;;;9.88;8.98;;;;;;;10.32;86.90;98711.16;10047451;29;20081;-68
2021/11/03 22:47:00;;;;;;;9.07;8.23;;;;;;;10.33;87.24;98696.84;10053245;29;20833;-67
2021/11/03 22:52:02;;;;;;;9.60;8.80;;;;;;;10.31;87.44;98699.66;10065190;29;20080;-67
2021/11/03 22:57:04;;;;;;;9.90;9.00;;;;;;;10.31;87.44;98698.84;10047472;29;20045;-67
2021/11/03 23:02:06;;;;;;;9.55;8.65;;;;;;;10.34;87.63;98706.53;10047204;29;20060;-67
2021/11/03 23:07:08;;;;;;;10.23;9.27;;;;;;;10.30;87.92;98715.78;10045853;29;20219;-69
2021/11/03 23:12:10;;;;;;;11.15;10.00;;;;;;;10.30;87.69;98708.66;10051977;29;20073;-68
2021/11/03 23:17:12;;;;;;;12.63;9.88;;;;;;;10.35;87.38;98695.72;10053446;29;20129;-68
2021/11/03 23:22:16;;;;;;;11.85;10.38;;;;;;;10.26;87.60;98700.13;10047500;29;20516;-68
2021/11/03 23:27:17;;;;;;;11.18;10.07;;;;;;;10.27;87.50;98704.47;10049013;29;20124;-67
2021/11/03 23:32:19;;;;;;;8.98;8.18;;;;;;;10.30;87.65;98705.13;10048929;29;20148;-68
2021/11/03 23:37:21;;;;;;;9.75;8.80;;;;;;;10.38;86.87;98699.91;10047843;29;20064;-68
2021/11/03 23:42:22;;;;;;;9.82;8.93;;;;;;;10.31;86.82;98693.50;10049123;29;20633;-67
2021/11/03 23:47:24;;;;;;;9.52;8.63;;;;;;;10.24;86.05;98693.34;10048062;29;20064;-68